createdAt,value
2022-12-15T00:02:07.262Z,74.54
2022-12-15T00:04:57.462Z,74.34
2022-12-15T00:07:47.789Z,73.96
2022-12-15T00:10:38.715Z,74.21
2022-12-15T00:13:31.117Z,74.45
2022-12-15T00:16:21.481Z,74.40
2022-12-15T00:19:11.921Z,74.08
2022-12-15T00:22:01.783Z,74.06
2022-12-15T00:24:54.145Z,73.61
2022-12-15T00:27:44.216Z,73.48
2022-12-15T00:30:34.407Z,72.84
2022-12-15T00:33:31.048Z,73.16
2022-12-15T00:36:21.649Z,73.24
2022-12-15T00:38:53.172Z,72.93
2022-12-15T00:41:24.716Z,72.31
2022-12-15T00:43:56.269Z,72.18
2022-12-15T00:46:46.658Z,71.98
2022-12-15T00:49:47.680Z,72.33
2022-12-15T00:52:37.930Z,72.08
2022-12-15T00:55:28.116Z,71.88
2022-12-15T00:58:18.444Z,72.15
2022-12-15T01:01:08.701Z,72.09
2022-12-15T01:03:58.953Z,71.75
2022-12-15T01:06:49.186Z,71.61
2022-12-15T01:09:39.116Z,72.14
2022-12-15T01:12:29.293Z,71.88
2022-12-15T01:15:19.242Z,71.99
2022-12-15T01:18:09.100Z,71.88
2022-12-15T01:20:40.680Z,72.31
2022-12-15T01:23:12.236Z,72.11
2022-12-15T01:25:45.816Z,72.45
2022-12-15T01:28:22.298Z,72.33
2022-12-15T01:30:53.915Z,72.56
2022-12-15T01:33:25.481Z,72.71
2022-12-15T01:35:59.172Z,72.83
2022-12-15T01:38:30.821Z,72.64
2022-12-15T01:41:05.993Z,72.97
2022-12-15T01:43:40.167Z,72.80
2022-12-15T01:46:18.219Z,72.72
2022-12-15T01:49:00.134Z,73.13
2022-12-15T01:51:39.407Z,72.76
2022-12-15T01:54:19.826Z,72.65
2022-12-15T01:56:56.950Z,73.04
2022-12-15T01:59:39.032Z,72.99
2022-12-15T02:02:12.457Z,72.81
2022-12-15T02:04:45.629Z,72.75
2022-12-15T02:07:18.355Z,72.80
2022-12-15T02:09:52.314Z,72.84
2022-12-15T02:12:45.810Z,73.00
2022-12-15T02:15:32.333Z,73.20
2022-12-15T02:18:32.448Z,73.37
2022-12-15T02:21:42.517Z,73.10
2022-12-15T02:24:35.053Z,73.76
2022-12-15T02:27:15.865Z,73.49
2022-12-15T02:30:10.089Z,73.08
2022-12-15T02:32:54.594Z,73.46
2022-12-15T02:35:44.818Z,73.99
2022-12-15T02:38:28.558Z,73.94
2022-12-15T02:41:02.228Z,73.78
2022-12-15T02:43:38.853Z,73.95
2022-12-15T02:46:35.426Z,74.23
2022-12-15T02:49:17.996Z,74.16
2022-12-15T02:51:52.574Z,73.97
2022-12-15T02:54:54.817Z,74.25
2022-12-15T02:57:44.333Z,74.41
2022-12-15T03:00:17.652Z,74.23
2022-12-15T03:02:53.593Z,74.42
2022-12-15T03:05:25.896Z,74.75
2022-12-15T03:07:57.873Z,74.52
2022-12-15T03:10:29.564Z,74.71
2022-12-15T03:13:01.120Z,74.33
2022-12-15T03:15:35.466Z,74.41
2022-12-15T03:18:07.373Z,74.22
2022-12-15T03:20:40.093Z,74.88
2022-12-15T03:23:11.775Z,74.62
2022-12-15T03:25:46.525Z,74.95
2022-12-15T03:28:21.863Z,74.49
2022-12-15T03:30:53.383Z,74.72
2022-12-15T03:33:25.085Z,74.57
2022-12-15T03:35:56.736Z,74.63
2022-12-15T03:38:28.368Z,74.31
2022-12-15T03:40:59.882Z,74.60
2022-12-15T03:43:31.823Z,74.74
2022-12-15T03:46:03.824Z,74.18
2022-12-15T03:48:35.456Z,73.75
2022-12-15T03:51:07.092Z,73.48
2022-12-15T03:53:38.684Z,73.69
2022-12-15T03:56:10.315Z,73.96
2022-12-15T03:58:41.871Z,73.94
2022-12-15T04:01:26.350Z,74.11
2022-12-15T04:04:01.294Z,74.05
2022-12-15T04:06:33.277Z,73.81
2022-12-15T04:09:04.913Z,73.76
2022-12-15T04:11:36.476Z,73.88
2022-12-15T04:14:09.396Z,74.18
2022-12-15T04:16:40.992Z,73.21
2022-12-15T04:19:31.219Z,73.22
2022-12-15T04:22:03.658Z,73.06
2022-12-15T04:24:53.874Z,73.21
2022-12-15T04:27:44.176Z,73.29
2022-12-15T04:30:35.003Z,73.10
2022-12-15T04:33:30.637Z,72.89
2022-12-15T04:36:21.669Z,72.57
2022-12-15T04:39:11.792Z,72.25
2022-12-15T04:42:02.030Z,72.81
2022-12-15T04:44:51.971Z,72.13
2022-12-15T04:47:42.079Z,72.29
2022-12-15T04:50:32.627Z,72.24
2022-12-15T04:53:31.808Z,71.78
2022-12-15T04:56:28.852Z,71.79
2022-12-15T04:59:19.322Z,71.58
2022-12-15T05:02:10.055Z,71.32
2022-12-15T05:05:00.338Z,71.19
2022-12-15T05:07:50.482Z,71.17
2022-12-15T05:10:40.735Z,71.32
2022-12-15T05:13:31.254Z,71.73
2022-12-15T05:16:23.862Z,72.12
2022-12-15T05:19:14.276Z,71.90
2022-12-15T05:22:04.499Z,71.91
2022-12-15T05:24:54.830Z,72.33
2022-12-15T05:27:44.740Z,72.16
2022-12-15T05:30:35.446Z,72.23
2022-12-15T05:33:07.073Z,71.97
2022-12-15T05:35:38.894Z,72.62
2022-12-15T05:38:10.603Z,72.33
2022-12-15T05:40:42.623Z,72.07
2022-12-15T05:43:14.223Z,72.58
2022-12-15T05:45:45.792Z,72.31
2022-12-15T05:48:17.568Z,72.36
2022-12-15T05:50:50.599Z,72.26
2022-12-15T05:53:22.277Z,72.46
2022-12-15T05:56:01.433Z,72.51
2022-12-15T05:58:33.172Z,72.77
2022-12-15T06:01:04.770Z,72.56
2022-12-15T06:03:36.388Z,72.63
2022-12-15T06:06:09.345Z,72.31
2022-12-15T06:08:42.469Z,72.21
2022-12-15T06:11:16.482Z,72.16
2022-12-15T06:13:48.745Z,72.09
2022-12-15T06:16:21.942Z,72.21
2022-12-15T06:18:57.185Z,72.48
2022-12-15T06:21:31.707Z,72.33
2022-12-15T06:24:07.348Z,72.70
2022-12-15T06:26:43.317Z,71.99
2022-12-15T06:29:15.604Z,71.96
2022-12-15T06:31:47.535Z,72.07
2022-12-15T06:34:19.226Z,71.85
2022-12-15T06:36:50.886Z,71.50
2022-12-15T06:39:22.454Z,71.71
2022-12-15T06:41:54.036Z,71.80
2022-12-15T06:44:28.562Z,71.60
2022-12-15T06:47:00.252Z,71.61
2022-12-15T06:49:32.052Z,71.33
2022-12-15T06:52:03.680Z,71.29
2022-12-15T06:54:35.245Z,71.21
2022-12-15T06:57:06.819Z,71.89
2022-12-15T06:59:39.212Z,71.02
2022-12-15T07:02:16.928Z,71.66
2022-12-15T07:04:48.663Z,71.87
2022-12-15T07:07:20.582Z,71.44
2022-12-15T07:09:52.154Z,71.48
2022-12-15T07:12:23.742Z,71.52
2022-12-15T07:14:55.310Z,71.78
2022-12-15T07:17:26.991Z,72.35
2022-12-15T07:19:58.572Z,72.31
2022-12-15T07:22:33.648Z,72.13
2022-12-15T07:25:05.814Z,72.58
2022-12-15T07:27:37.484Z,72.29
2022-12-15T07:30:09.533Z,71.78
2022-12-15T07:32:41.848Z,71.57
2022-12-15T07:35:13.449Z,71.20
2022-12-15T07:37:45.306Z,71.20
2022-12-15T07:40:17.533Z,71.47
2022-12-15T07:42:49.109Z,70.90
2022-12-15T07:45:21.879Z,70.50
2022-12-15T07:47:53.589Z,69.38
2022-12-15T07:50:25.164Z,69.67
2022-12-15T07:52:58.012Z,69.19
2022-12-15T07:55:57.356Z,69.40
2022-12-15T07:58:21.202Z,68.78
2022-12-15T08:01:01.861Z,71.36
2022-12-15T08:03:34.221Z,71.72
2022-12-15T08:06:08.201Z,69.21
2022-12-15T08:08:40.568Z,68.04
2022-12-15T08:11:14.685Z,67.19
2022-12-15T08:14:03.558Z,66.47
2022-12-15T08:16:36.948Z,66.17
2022-12-15T08:19:13.165Z,66.17
2022-12-15T08:21:46.777Z,64.51
2022-12-15T08:24:19.397Z,61.71
2022-12-15T08:26:51.006Z,56.95
2022-12-15T08:29:50.315Z,51.22
2022-12-15T08:32:16.855Z,47.36
2022-12-15T08:34:49.761Z,44.57
2022-12-15T08:37:21.402Z,42.59
2022-12-15T08:39:53.109Z,39.13
2022-12-15T08:42:24.804Z,37.84
2022-12-15T08:44:56.571Z,37.27
2022-12-15T08:47:28.236Z,35.31
2022-12-15T08:49:59.996Z,35.83
2022-12-15T08:52:31.881Z,35.34
2022-12-15T08:55:03.891Z,34.07
2022-12-15T08:57:43.166Z,32.89
2022-12-15T09:00:16.093Z,32.24
2022-12-15T09:02:47.823Z,31.22
2022-12-15T09:05:19.682Z,30.03
2022-12-15T09:08:04.654Z,29.19
2022-12-15T09:10:47.654Z,28.44
2022-12-15T09:13:24.908Z,27.71
2022-12-15T09:16:13.333Z,26.76
2022-12-15T09:18:47.944Z,27.35
2022-12-15T09:21:25.197Z,26.48
2022-12-15T09:24:00.877Z,26.42
2022-12-15T09:26:34.579Z,26.06
2022-12-15T09:29:06.320Z,26.09
2022-12-15T09:31:39.006Z,25.80
2022-12-15T09:34:14.990Z,25.28
2022-12-15T09:36:46.619Z,25.73
2022-12-15T09:39:18.487Z,24.69
2022-12-15T09:41:55.049Z,24.12
2022-12-15T09:44:28.980Z,24.04
2022-12-15T09:47:22.077Z,23.20
2022-12-15T09:49:59.229Z,22.51
2022-12-15T09:52:39.672Z,22.45
2022-12-15T09:55:23.264Z,22.15
2022-12-15T09:58:14.214Z,21.33
2022-12-15T10:00:58.166Z,21.94
2022-12-15T10:03:55.646Z,22.01
2022-12-15T10:06:35.980Z,21.65
2022-12-15T10:09:21.454Z,21.50
2022-12-15T10:12:11.954Z,20.88
2022-12-15T10:14:50.140Z,21.36
2022-12-15T10:17:26.246Z,20.50
2022-12-15T10:20:13.295Z,20.46
2022-12-15T10:22:45.126Z,20.73
2022-12-15T10:28:52.293Z,20.05
2022-12-15T10:31:45.135Z,20.45
2022-12-15T10:34:43.565Z,20.86
2022-12-15T10:37:18.924Z,20.96
2022-12-15T10:39:51.312Z,20.88
2022-12-15T10:42:27.196Z,20.59
2022-12-15T10:44:59.213Z,21.13
2022-12-15T10:47:32.075Z,21.43
2022-12-15T10:50:25.091Z,20.97
2022-12-15T10:52:57.073Z,21.88
2022-12-15T10:55:36.005Z,21.35
2022-12-15T10:58:20.746Z,21.47
2022-12-15T11:01:14.972Z,21.34
2022-12-15T11:03:51.507Z,21.34
2022-12-15T11:06:33.767Z,20.47
2022-12-15T11:09:35.885Z,19.95
2022-12-15T11:12:50.721Z,19.68
2022-12-15T11:15:22.377Z,20.18
2022-12-15T11:18:02.790Z,19.75
2022-12-15T11:20:38.489Z,19.89
2022-12-15T11:23:30.470Z,19.51
2022-12-15T11:26:14.085Z,19.75
2022-12-15T11:28:56.368Z,19.28
2022-12-15T11:31:40.248Z,20.24
2022-12-15T11:34:17.819Z,20.54
2022-12-15T11:37:14.677Z,20.42
2022-12-15T11:40:15.382Z,20.36
2022-12-15T11:42:52.865Z,20.32
2022-12-15T11:45:44.659Z,20.61
2022-12-15T11:48:21.283Z,21.03
2022-12-15T11:50:59.840Z,21.31
2022-12-15T11:53:50.298Z,21.63
2022-12-15T11:56:31.328Z,21.80
2022-12-15T11:59:21.245Z,22.23
2022-12-15T12:02:02.479Z,23.20
2022-12-15T12:04:58.077Z,23.90
2022-12-15T12:07:45.314Z,24.37
2022-12-15T12:10:44.997Z,25.35
2022-12-15T12:13:50.353Z,25.75
2022-12-15T12:16:30.759Z,25.80
2022-12-15T12:19:06.447Z,25.76
2022-12-15T12:21:44.970Z,25.84
2022-12-15T12:24:26.372Z,26.37
2022-12-15T12:27:22.467Z,26.50
2022-12-15T12:30:02.689Z,28.13
2022-12-15T12:32:59.899Z,30.23
2022-12-15T12:35:47.120Z,32.29
2022-12-15T12:38:29.322Z,33.61
2022-12-15T12:41:23.491Z,35.11
2022-12-15T12:43:58.218Z,36.73
2022-12-15T12:46:39.201Z,38.57
2022-12-15T12:49:33.419Z,39.68
2022-12-15T12:52:13.717Z,41.20
2022-12-15T12:55:01.988Z,42.16
2022-12-15T12:57:36.599Z,44.45
2022-12-15T13:00:08.216Z,45.31
2022-12-15T13:03:13.423Z,46.05
2022-12-15T13:05:50.428Z,47.17
2022-12-15T13:08:45.282Z,48.82
2022-12-15T13:11:45.475Z,49.57
2022-12-15T13:14:25.907Z,50.18
2022-12-15T13:17:26.062Z,50.21
2022-12-15T13:20:01.310Z,51.16
2022-12-15T13:22:34.236Z,51.97
2022-12-15T13:25:35.838Z,52.92
2022-12-15T13:28:18.708Z,53.75
2022-12-15T13:31:21.324Z,53.52
2022-12-15T13:34:01.223Z,53.81
2022-12-15T13:36:42.030Z,54.62
2022-12-15T13:39:16.301Z,55.49
2022-12-15T13:42:23.765Z,56.36
2022-12-15T13:44:51.811Z,56.84
2022-12-15T13:47:28.022Z,56.87
2022-12-15T13:50:08.540Z,57.13
2022-12-15T13:56:07.098Z,60.08
2022-12-15T13:58:47.891Z,60.56
2022-12-15T14:01:30.153Z,60.63
2022-12-15T14:04:15.621Z,61.95
2022-12-15T14:07:00.738Z,60.24
2022-12-15T14:09:41.899Z,61.04
2022-12-15T14:12:14.166Z,61.19
2022-12-15T14:17:39.334Z,61.30
2022-12-15T14:20:17.922Z,61.69
2022-12-15T14:22:52.353Z,63.61
2022-12-15T14:25:29.663Z,62.92
2022-12-15T14:28:07.761Z,63.25
2022-12-15T14:30:42.380Z,63.19
2022-12-15T14:33:18.200Z,63.49
2022-12-15T14:35:53.498Z,62.85
2022-12-15T14:38:32.095Z,63.36
2022-12-15T14:41:06.115Z,62.83
2022-12-15T14:43:40.045Z,63.91
2022-12-15T14:46:18.706Z,64.58
2022-12-15T14:49:01.010Z,63.83
2022-12-15T14:51:44.183Z,63.51
2022-12-15T14:54:38.270Z,64.68
2022-12-15T14:57:15.362Z,64.05
2022-12-15T14:59:54.448Z,65.49
2022-12-15T15:02:29.562Z,64.78
2022-12-15T15:03:03.980Z,20.65
2022-12-15T15:05:04.693Z,64.94
2022-12-15T15:07:38.701Z,65.09
2022-12-15T15:10:27.954Z,65.37
2022-12-15T15:12:59.766Z,65.50
2022-12-15T15:15:31.482Z,64.69
2022-12-15T15:18:03.124Z,65.16
2022-12-15T15:20:35.986Z,64.97
2022-12-15T15:23:07.498Z,65.16
2022-12-15T15:25:41.570Z,65.59
2022-12-15T15:28:17.979Z,66.10
2022-12-15T15:30:59.315Z,65.73
2022-12-15T15:33:31.508Z,66.35
2022-12-15T15:36:04.311Z,66.86
2022-12-15T15:38:39.547Z,66.83
2022-12-15T15:41:14.011Z,67.06
2022-12-15T15:43:46.079Z,66.64
2022-12-15T15:46:27.687Z,65.98
2022-12-15T15:49:03.068Z,66.34
2022-12-15T15:51:38.253Z,66.86
2022-12-15T15:54:25.032Z,67.24
2022-12-15T15:56:56.647Z,67.54
2022-12-15T15:59:29.015Z,67.67
2022-12-15T16:02:02.180Z,66.55
2022-12-15T16:04:36.321Z,66.77
2022-12-15T16:07:20.693Z,67.16
2022-12-15T16:09:53.435Z,67.81
2022-12-15T16:12:33.472Z,68.19
2022-12-15T16:15:23.777Z,68.22
2022-12-15T16:17:55.522Z,70.24
2022-12-15T16:20:29.179Z,69.99
2022-12-15T16:23:05.584Z,69.71
2022-12-15T16:25:48.498Z,69.11
2022-12-15T16:28:25.114Z,70.26
2022-12-15T16:30:58.794Z,69.53
2022-12-15T16:33:30.440Z,70.15
2022-12-15T16:36:02.157Z,69.37
2022-12-15T16:38:34.214Z,70.70
2022-12-15T16:41:08.276Z,69.50
2022-12-15T16:43:46.031Z,69.79
2022-12-15T16:46:20.563Z,70.70
2022-12-15T16:48:52.297Z,71.11
2022-12-15T16:51:40.189Z,71.79
2022-12-15T16:54:24.297Z,70.70
2022-12-15T16:56:58.078Z,71.22
2022-12-15T16:59:34.326Z,72.12
2022-12-15T17:02:29.088Z,71.04
2022-12-15T17:05:00.938Z,72.19
2022-12-15T17:07:32.670Z,72.27
2022-12-15T17:10:05.461Z,72.05
2022-12-15T17:12:37.244Z,71.99
2022-12-15T17:15:20.608Z,71.64
2022-12-15T17:17:53.092Z,71.83
2022-12-15T17:20:30.040Z,71.88
2022-12-15T17:23:07.170Z,71.17
2022-12-15T17:28:36.725Z,71.84
2022-12-15T17:31:18.138Z,71.71
2022-12-15T17:33:49.864Z,71.31
2022-12-15T17:36:28.325Z,71.29
2022-12-15T17:39:01.239Z,70.63
2022-12-15T17:41:58.660Z,71.60
2022-12-15T17:44:36.245Z,71.33
2022-12-15T17:47:09.077Z,71.18
2022-12-15T17:49:41.729Z,72.25
2022-12-15T17:52:28.448Z,72.11
2022-12-15T17:55:04.290Z,71.75
2022-12-15T17:57:35.870Z,72.37
2022-12-15T18:00:22.359Z,71.83
2022-12-15T18:02:55.529Z,71.86
2022-12-15T18:05:30.885Z,72.01
2022-12-15T18:08:10.638Z,72.18
2022-12-15T18:10:42.754Z,72.74
2022-12-15T18:13:14.232Z,72.52
2022-12-15T18:15:47.116Z,71.96
2022-12-15T18:18:20.845Z,72.78
2022-12-15T18:20:57.007Z,72.28
2022-12-15T18:23:32.620Z,71.91
2022-12-15T18:26:07.529Z,72.09
2022-12-15T18:28:39.171Z,71.95
2022-12-15T18:31:17.645Z,71.83
2022-12-15T18:33:50.027Z,71.73
2022-12-15T18:36:22.559Z,71.51
2022-12-15T18:38:54.159Z,71.53
2022-12-15T18:41:26.457Z,71.87
2022-12-15T18:43:58.950Z,71.93
2022-12-15T18:46:31.003Z,71.63
2022-12-15T18:49:02.762Z,71.49
2022-12-15T18:51:34.530Z,71.82
2022-12-15T18:54:15.787Z,71.89
2022-12-15T18:56:48.357Z,71.48
2022-12-15T18:59:19.950Z,71.88
2022-12-15T19:01:51.756Z,72.37
2022-12-15T19:04:23.445Z,73.07
2022-12-15T19:06:55.378Z,72.64
2022-12-15T19:09:30.375Z,72.41
2022-12-15T19:12:20.377Z,72.96
2022-12-15T19:14:55.203Z,72.04
2022-12-15T19:17:45.797Z,72.29
2022-12-15T19:20:38.587Z,72.81
2022-12-15T19:23:13.185Z,73.36
2022-12-15T19:25:46.760Z,73.52
2022-12-15T19:28:21.465Z,73.74
2022-12-15T19:30:53.169Z,74.06
2022-12-15T19:33:25.133Z,73.27
2022-12-15T19:35:57.705Z,73.12
2022-12-15T19:38:34.358Z,72.86
2022-12-15T19:41:05.949Z,72.54
2022-12-15T19:43:37.604Z,73.42
2022-12-15T19:46:20.415Z,73.25
2022-12-15T19:48:54.267Z,72.92
2022-12-15T19:51:26.225Z,72.79
2022-12-15T19:53:58.305Z,72.23
2022-12-15T19:56:30.290Z,72.34
2022-12-15T19:59:02.960Z,72.56
2022-12-15T20:01:34.773Z,72.97
2022-12-15T20:04:06.483Z,72.99
2022-12-15T20:06:38.576Z,73.53
2022-12-15T20:09:18.442Z,73.39
2022-12-15T20:11:50.043Z,72.88
2022-12-15T20:14:22.359Z,72.94
2022-12-15T20:16:54.035Z,73.11
2022-12-15T20:19:25.770Z,73.33
2022-12-15T20:22:01.600Z,72.84
2022-12-15T20:24:33.596Z,72.87
2022-12-15T20:27:12.287Z,72.67
2022-12-15T20:29:43.956Z,72.60
2022-12-15T20:32:19.424Z,72.61
2022-12-15T20:34:51.028Z,72.94
2022-12-15T20:37:28.894Z,73.83
2022-12-15T20:40:00.634Z,73.51
2022-12-15T20:42:32.184Z,73.65
2022-12-15T20:45:04.188Z,73.49
2022-12-15T20:47:39.951Z,73.26
2022-12-15T20:50:25.152Z,73.30
2022-12-15T20:52:56.583Z,73.66
2022-12-15T20:55:28.684Z,73.10
2022-12-15T20:58:00.298Z,73.02
2022-12-15T21:00:32.277Z,73.35
2022-12-15T21:03:16.761Z,72.79
2022-12-15T21:05:49.659Z,73.01
2022-12-15T21:08:27.484Z,72.51
2022-12-15T21:11:13.780Z,72.58
2022-12-15T21:13:47.471Z,72.50
2022-12-15T21:16:22.753Z,72.20
2022-12-15T21:19:19.296Z,72.23
2022-12-15T21:21:52.011Z,72.19
2022-12-15T21:24:25.645Z,72.43
2022-12-15T21:26:57.349Z,72.50
2022-12-15T21:29:29.515Z,72.01
2022-12-15T21:32:01.165Z,71.94
2022-12-15T21:34:32.886Z,72.13
2022-12-15T21:37:06.365Z,71.82
2022-12-15T21:39:38.009Z,71.39
2022-12-15T21:42:16.158Z,72.00
2022-12-15T21:44:48.212Z,71.80
2022-12-15T21:47:48.855Z,72.13
2022-12-15T21:50:20.403Z,71.91
2022-12-15T21:52:52.223Z,71.97
2022-12-15T21:55:26.958Z,71.85
2022-12-15T21:57:58.515Z,71.48
2022-12-15T22:00:30.189Z,71.78
2022-12-15T22:03:01.924Z,71.87
2022-12-15T22:05:33.684Z,71.65
2022-12-15T22:08:20.217Z,71.67
2022-12-15T22:10:52.146Z,71.97
2022-12-15T22:13:23.789Z,71.69
2022-12-15T22:15:55.466Z,72.44
2022-12-15T22:18:27.250Z,72.26
2022-12-15T22:20:58.810Z,71.96
2022-12-15T22:23:30.382Z,71.64
2022-12-15T22:26:02.101Z,71.84
2022-12-15T22:28:34.324Z,71.65
2022-12-15T22:31:06.756Z,71.75
2022-12-15T22:33:38.406Z,72.01
2022-12-15T22:36:09.994Z,71.49
2022-12-15T22:38:41.601Z,71.50
2022-12-15T22:41:19.466Z,71.53
2022-12-15T22:43:56.259Z,71.59
2022-12-15T22:46:27.976Z,71.91
2022-12-15T22:48:59.566Z,72.15
2022-12-15T22:51:31.133Z,71.80
2022-12-15T22:54:02.741Z,71.82
2022-12-15T22:56:38.208Z,71.72
2022-12-15T22:59:16.277Z,72.45
2022-12-15T23:01:47.984Z,72.43
2022-12-15T23:04:19.650Z,71.90
2022-12-15T23:06:51.712Z,72.03
2022-12-15T23:09:23.470Z,71.52
2022-12-15T23:11:55.724Z,72.27
2022-12-15T23:14:46.433Z,72.39
2022-12-15T23:17:17.987Z,72.32
2022-12-15T23:19:49.614Z,72.47
2022-12-15T23:22:21.521Z,72.25
2022-12-15T23:24:53.051Z,72.54
2022-12-15T23:27:24.624Z,72.45
2022-12-15T23:29:56.176Z,72.70
2022-12-15T23:32:27.720Z,72.46
2022-12-15T23:34:59.290Z,72.12
2022-12-15T23:37:30.904Z,72.38
2022-12-15T23:40:02.656Z,72.68
2022-12-15T23:42:35.258Z,72.54
2022-12-15T23:45:07.549Z,72.16
2022-12-15T23:47:39.960Z,72.43
2022-12-15T23:50:11.716Z,72.71
2022-12-15T23:52:43.280Z,72.36
2022-12-15T23:55:16.987Z,72.49
2022-12-15T23:57:48.579Z,72.03
